sensor_id;sensor_type;location;lat;lon;timestamp;pressure;altitude;pressure_sealevel;temperature;humidity
4836;BME280;2432;51.226;6.904;2022-12-13T00:01:23;100506.84;;;-2.65;100.00
4836;BME280;2432;51.226;6.904;2022-12-13T00:03:54;100507.00;;;-2.61;100.00
4836;BME280;2432;51.226;6.904;2022-12-13T00:06:21;100507.22;;;-2.80;100.00
4836;BME280;2432;51.226;6.904;2022-12-13T00:08:47;100505.66;;;-2.76;100.00
4836;BME280;2432;51.226;6.904;2022-12-13T00:11:15;100504.78;;;-2.77;100.00
4836;BME280;2432;51.226;6.904;2022-12-13T00:13:42;100498.63;;;-2.82;100.00
4836;BME280;2432;51.226;6.904;2022-12-13T00:16:11;100497.59;;;-2.87;100.00
4836;BME280;2432;51.226;6.904;2022-12-13T00:18:39;100488.97;;;-2.91;100.00
4836;BME280;2432;51.226;6.904;2022-12-13T00:21:06;100494.31;;;-2.85;100.00
4836;BME280;2432;51.226;6.904;2022-12-13T00:23:34;100492.69;;;-2.81;100.00
4836;BME280;2432;51.226;6.904;2022-12-13T00:26:06;100502.72;;;-2.87;100.00
4836;BME280;2432;51.226;6.904;2022-12-13T00:28:33;100501.50;;;-3.00;100.00
4836;BME280;2432;51.226;6.904;2022-12-13T00:31:00;100493.13;;;-2.94;100.00
4836;BME280;2432;51.226;6.904;2022-12-13T00:33:47;100496.00;;;-2.85;100.00
4836;BME280;2432;51.226;6.904;2022-12-13T00:36:15;100498.69;;;-2.80;100.00
4836;BME280;2432;51.226;6.904;2022-12-13T00:38:42;100499.25;;;-2.89;100.00
4836;BME280;2432;51.226;6.904;2022-12-13T00:41:13;100493.38;;;-2.87;100.00
4836;BME280;2432;51.226;6.904;2022-12-13T00:43:40;100494.06;;;-2.92;100.00
4836;BME280;2432;51.226;6.904;2022-12-13T00:46:13;100499.75;;;-3.01;100.00
4836;BME280;2432;51.226;6.904;2022-12-13T00:48:40;100494.38;;;-3.08;100.00
4836;BME280;2432;51.226;6.904;2022-12-13T00:51:08;100494.63;;;-3.01;100.00
4836;BME280;2432;51.226;6.904;2022-12-13T00:53:35;100492.59;;;-3.11;100.00
4836;BME280;2432;51.226;6.904;2022-12-13T00:56:02;100485.53;;;-3.18;100.00
4836;BME280;2432;51.226;6.904;2022-12-13T00:58:29;100491.56;;;-3.16;100.00
4836;BME280;2432;51.226;6.904;2022-12-13T01:01:08;100494.22;;;-3.13;100.00
4836;BME280;2432;51.226;6.904;2022-12-13T01:03:35;100487.03;;;-2.98;100.00
4836;BME280;2432;51.226;6.904;2022-12-13T01:06:14;100483.03;;;-2.90;100.00
4836;BME280;2432;51.226;6.904;2022-12-13T01:08:43;100485.63;;;-2.88;100.00
4836;BME280;2432;51.226;6.904;2022-12-13T01:11:10;100489.84;;;-2.90;100.00
4836;BME280;2432;51.226;6.904;2022-12-13T01:13:37;100487.19;;;-2.93;100.00
4836;BME280;2432;51.226;6.904;2022-12-13T01:16:06;100488.34;;;-2.83;100.00
4836;BME280;2432;51.226;6.904;2022-12-13T01:18:34;100485.88;;;-2.80;100.00
4836;BME280;2432;51.226;6.904;2022-12-13T01:21:03;100489.25;;;-2.81;100.00
4836;BME280;2432;51.226;6.904;2022-12-13T01:23:30;100479.06;;;-2.80;100.00
4836;BME280;2432;51.226;6.904;2022-12-13T01:25:57;100483.19;;;-2.85;100.00
4836;BME280;2432;51.226;6.904;2022-12-13T01:28:24;100482.38;;;-3.11;100.00
4836;BME280;2432;51.226;6.904;2022-12-13T01:30:59;100491.31;;;-3.24;100.00
4836;BME280;2432;51.226;6.904;2022-12-13T01:33:27;100498.13;;;-3.24;100.00
4836;BME280;2432;51.226;6.904;2022-12-13T01:35:53;100489.78;;;-3.19;100.00
4836;BME280;2432;51.226;6.904;2022-12-13T01:38:20;100494.94;;;-3.17;100.00
4836;BME280;2432;51.226;6.904;2022-12-13T01:40:52;100489.06;;;-3.15;100.00
4836;BME280;2432;51.226;6.904;2022-12-13T01:43:31;100494.56;;;-3.29;100.00
4836;BME280;2432;51.226;6.904;2022-12-13T01:46:13;100498.00;;;-3.29;100.00
4836;BME280;2432;51.226;6.904;2022-12-13T01:51:28;100502.59;;;-3.44;100.00
4836;BME280;2432;51.226;6.904;2022-12-13T01:53:59;100505.59;;;-3.30;100.00
4836;BME280;2432;51.226;6.904;2022-12-13T01:56:34;100492.03;;;-3.28;100.00
4836;BME280;2432;51.226;6.904;2022-12-13T01:59:03;100497.28;;;-3.23;100.00
4836;BME280;2432;51.226;6.904;2022-12-13T02:01:32;100500.97;;;-3.15;100.00
4836;BME280;2432;51.226;6.904;2022-12-13T02:03:59;100499.41;;;-3.11;100.00
4836;BME280;2432;51.226;6.904;2022-12-13T02:06:32;100504.16;;;-3.22;100.00
4836;BME280;2432;51.226;6.904;2022-12-13T02:09:00;100503.94;;;-3.30;100.00
4836;BME280;2432;51.226;6.904;2022-12-13T02:11:27;100505.59;;;-3.30;100.00
4836;BME280;2432;51.226;6.904;2022-12-13T02:13:54;100511.75;;;-3.25;100.00
4836;BME280;2432;51.226;6.904;2022-12-13T02:22:25;100504.38;;;-3.16;100.00
4836;BME280;2432;51.226;6.904;2022-12-13T02:31:08;100501.25;;;-3.33;100.00
4836;BME280;2432;51.226;6.904;2022-12-13T02:34:07;100499.38;;;-3.38;100.00
4836;BME280;2432;51.226;6.904;2022-12-13T02:37:05;100498.13;;;-3.50;100.00
4836;BME280;2432;51.226;6.904;2022-12-13T02:39:48;100496.03;;;-3.61;100.00
4836;BME280;2432;51.226;6.904;2022-12-13T02:42:27;100493.25;;;-3.67;100.00
4836;BME280;2432;51.226;6.904;2022-12-13T02:45:12;100489.81;;;-3.68;100.00
4836;BME280;2432;51.226;6.904;2022-12-13T02:47:46;100488.72;;;-3.75;100.00
4836;BME280;2432;51.226;6.904;2022-12-13T02:50:15;100486.91;;;-3.79;100.00
4836;BME280;2432;51.226;6.904;2022-12-13T02:52:42;100482.69;;;-3.77;100.00
4836;BME280;2432;51.226;6.904;2022-12-13T02:55:13;100484.56;;;-3.73;100.00
4836;BME280;2432;51.226;6.904;2022-12-13T02:57:43;100476.16;;;-3.68;100.00
4836;BME280;2432;51.226;6.904;2022-12-13T03:09:28;100476.09;;;-3.46;100.00
4836;BME280;2432;51.226;6.904;2022-12-13T03:17:42;100479.78;;;-3.38;100.00
4836;BME280;2432;51.226;6.904;2022-12-13T03:20:15;100480.38;;;-3.45;100.00
4836;BME280;2432;51.226;6.904;2022-12-13T03:22:50;100476.78;;;-3.50;100.00
4836;BME280;2432;51.226;6.904;2022-12-13T03:25:17;100477.66;;;-3.50;100.00
4836;BME280;2432;51.226;6.904;2022-12-13T03:27:56;100478.53;;;-3.49;100.00
4836;BME280;2432;51.226;6.904;2022-12-13T03:30:27;100474.00;;;-3.56;100.00
4836;BME280;2432;51.226;6.904;2022-12-13T03:32:53;100481.75;;;-3.55;100.00
4836;BME280;2432;51.226;6.904;2022-12-13T03:35:19;100476.56;;;-3.56;100.00
4836;BME280;2432;51.226;6.904;2022-12-13T03:37:48;100478.75;;;-3.67;100.00
4836;BME280;2432;51.226;6.904;2022-12-13T03:40:15;100474.66;;;-3.63;100.00
4836;BME280;2432;51.226;6.904;2022-12-13T03:42:42;100468.78;;;-3.85;100.00
4836;BME280;2432;51.226;6.904;2022-12-13T03:45:08;100474.00;;;-4.06;100.00
4836;BME280;2432;51.226;6.904;2022-12-13T03:47:35;100471.59;;;-4.01;100.00
4836;BME280;2432;51.226;6.904;2022-12-13T03:50:02;100477.00;;;-3.93;100.00
4836;BME280;2432;51.226;6.904;2022-12-13T03:52:48;100471.59;;;-4.01;100.00
4836;BME280;2432;51.226;6.904;2022-12-13T03:55:18;100473.16;;;-4.06;100.00
4836;BME280;2432;51.226;6.904;2022-12-13T03:57:44;100472.28;;;-4.07;100.00
4836;BME280;2432;51.226;6.904;2022-12-13T04:00:11;100460.16;;;-3.88;100.00
4836;BME280;2432;51.226;6.904;2022-12-13T04:02:38;100466.28;;;-3.83;100.00
4836;BME280;2432;51.226;6.904;2022-12-13T04:05:05;100461.09;;;-3.85;100.00
4836;BME280;2432;51.226;6.904;2022-12-13T04:07:31;100470.59;;;-4.06;100.00
4836;BME280;2432;51.226;6.904;2022-12-13T04:10:00;100462.69;;;-4.12;100.00
4836;BME280;2432;51.226;6.904;2022-12-13T04:12:26;100457.91;;;-4.03;100.00
4836;BME280;2432;51.226;6.904;2022-12-13T04:15:14;100457.13;;;-4.01;100.00
4836;BME280;2432;51.226;6.904;2022-12-13T04:17:41;100469.88;;;-4.02;100.00
4836;BME280;2432;51.226;6.904;2022-12-13T04:20:08;100459.31;;;-3.87;100.00
4836;BME280;2432;51.226;6.904;2022-12-13T04:22:34;100459.22;;;-3.90;100.00
4836;BME280;2432;51.226;6.904;2022-12-13T04:25:02;100456.28;;;-4.01;100.00
4836;BME280;2432;51.226;6.904;2022-12-13T04:27:29;100462.59;;;-4.15;100.00
4836;BME280;2432;51.226;6.904;2022-12-13T04:29:56;100457.00;;;-4.05;100.00
4836;BME280;2432;51.226;6.904;2022-12-13T04:32:22;100450.00;;;-4.09;100.00
4836;BME280;2432;51.226;6.904;2022-12-13T04:34:52;100454.09;;;-4.14;100.00
4836;BME280;2432;51.226;6.904;2022-12-13T04:37:26;100450.41;;;-4.22;100.00
4836;BME280;2432;51.226;6.904;2022-12-13T04:39:53;100448.66;;;-4.23;100.00
4836;BME280;2432;51.226;6.904;2022-12-13T04:42:26;100443.34;;;-4.30;100.00
4836;BME280;2432;51.226;6.904;2022-12-13T04:44:52;100447.56;;;-4.30;100.00
4836;BME280;2432;51.226;6.904;2022-12-13T04:47:19;100444.97;;;-4.32;100.00
4836;BME280;2432;51.226;6.904;2022-12-13T04:49:46;100443.09;;;-4.36;100.00
4836;BME280;2432;51.226;6.904;2022-12-13T04:52:13;100434.69;;;-4.33;100.00
4836;BME280;2432;51.226;6.904;2022-12-13T04:54:48;100437.16;;;-4.35;100.00
4836;BME280;2432;51.226;6.904;2022-12-13T04:57:21;100444.97;;;-4.32;100.00
4836;BME280;2432;51.226;6.904;2022-12-13T04:59:48;100435.53;;;-4.34;100.00
4836;BME280;2432;51.226;6.904;2022-12-13T05:02:14;100441.50;;;-4.34;100.00
4836;BME280;2432;51.226;6.904;2022-12-13T05:04:49;100445.59;;;-4.37;100.00
4836;BME280;2432;51.226;6.904;2022-12-13T05:07:19;100445.06;;;-4.29;100.00
4836;BME280;2432;51.226;6.904;2022-12-13T05:09:46;100439.72;;;-4.35;100.00
4836;BME280;2432;51.226;6.904;2022-12-13T05:12:13;100444.25;;;-4.28;100.00
4836;BME280;2432;51.226;6.904;2022-12-13T05:14:49;100444.09;;;-4.32;100.00
4836;BME280;2432;51.226;6.904;2022-12-13T05:17:16;100432.34;;;-4.27;100.00
4836;BME280;2432;51.226;6.904;2022-12-13T05:19:43;100434.31;;;-4.20;100.00
4836;BME280;2432;51.226;6.904;2022-12-13T05:22:10;100445.34;;;-4.21;100.00
4836;BME280;2432;51.226;6.904;2022-12-13T05:24:45;100440.34;;;-4.18;100.00
4836;BME280;2432;51.226;6.904;2022-12-13T05:27:12;100431.34;;;-4.08;100.00
4836;BME280;2432;51.226;6.904;2022-12-13T05:29:53;100429.56;;;-4.09;100.00
4836;BME280;2432;51.226;6.904;2022-12-13T05:32:34;100431.66;;;-3.99;100.00
4836;BME280;2432;51.226;6.904;2022-12-13T05:35:13;100430.06;;;-3.95;100.00
4836;BME280;2432;51.226;6.904;2022-12-13T05:37:52;100421.53;;;-3.96;100.00
4836;BME280;2432;51.226;6.904;2022-12-13T05:40:21;100422.13;;;-4.03;100.00
4836;BME280;2432;51.226;6.904;2022-12-13T05:42:48;100419.16;;;-4.15;100.00
4836;BME280;2432;51.226;6.904;2022-12-13T05:45:16;100412.03;;;-4.24;100.00
4836;BME280;2432;51.226;6.904;2022-12-13T05:47:44;100415.94;;;-4.34;100.00
4836;BME280;2432;51.226;6.904;2022-12-13T05:50:12;100424.09;;;-4.20;100.00
4836;BME280;2432;51.226;6.904;2022-12-13T05:52:38;100422.03;;;-4.06;100.00
4836;BME280;2432;51.226;6.904;2022-12-13T05:55:05;100423.28;;;-4.19;100.00
4836;BME280;2432;51.226;6.904;2022-12-13T05:57:32;100425.19;;;-4.13;100.00
4836;BME280;2432;51.226;6.904;2022-12-13T05:59:59;100425.09;;;-4.16;100.00
4836;BME280;2432;51.226;6.904;2022-12-13T06:02:26;100428.56;;;-4.14;100.00
4836;BME280;2432;51.226;6.904;2022-12-13T06:04:53;100428.88;;;-4.05;100.00
4836;BME280;2432;51.226;6.904;2022-12-13T06:07:19;100426.91;;;-4.12;100.00
4836;BME280;2432;51.226;6.904;2022-12-13T06:09:46;100424.63;;;-4.29;100.00
4836;BME280;2432;51.226;6.904;2022-12-13T06:12:12;100432.25;;;-4.30;100.00
4836;BME280;2432;51.226;6.904;2022-12-13T06:14:57;100433.44;;;-4.20;100.00
4836;BME280;2432;51.226;6.904;2022-12-13T06:17:34;100430.63;;;-4.04;100.00
4836;BME280;2432;51.226;6.904;2022-12-13T06:20:03;100430.72;;;-4.01;100.00
4836;BME280;2432;51.226;6.904;2022-12-13T06:22:50;100427.84;;;-4.10;100.00
4836;BME280;2432;51.226;6.904;2022-12-13T06:25:17;100434.63;;;-4.11;100.00
4836;BME280;2432;51.226;6.904;2022-12-13T06:27:57;100429.56;;;-4.09;100.00
4836;BME280;2432;51.226;6.904;2022-12-13T06:30:27;100434.22;;;-3.99;100.00
4836;BME280;2432;51.226;6.904;2022-12-13T06:32:53;100424.97;;;-3.95;100.00
4836;BME280;2432;51.226;6.904;2022-12-13T06:35:20;100424.00;;;-3.99;100.00
4836;BME280;2432;51.226;6.904;2022-12-13T06:37:56;100425.56;;;-4.03;100.00
4836;BME280;2432;51.226;6.904;2022-12-13T06:40:28;100424.53;;;-4.08;100.00
4836;BME280;2432;51.226;6.904;2022-12-13T06:42:55;100425.41;;;-4.07;100.00
4836;BME280;2432;51.226;6.904;2022-12-13T06:45:22;100430.44;;;-4.09;100.00
4836;BME280;2432;51.226;6.904;2022-12-13T06:47:48;100441.47;;;-4.10;100.00
4836;BME280;2432;51.226;6.904;2022-12-13T06:50:15;100428.66;;;-4.11;100.00
4836;BME280;2432;51.226;6.904;2022-12-13T06:52:41;100434.53;;;-4.14;100.00
4836;BME280;2432;51.226;6.904;2022-12-13T06:55:08;100431.38;;;-4.07;100.00
4836;BME280;2432;51.226;6.904;2022-12-13T06:57:34;100428.66;;;-4.11;100.00
4836;BME280;2432;51.226;6.904;2022-12-13T07:00:02;100432.03;;;-4.12;100.00
4836;BME280;2432;51.226;6.904;2022-12-13T07:02:30;100434.59;;;-4.12;100.00
4836;BME280;2432;51.226;6.904;2022-12-13T07:04:57;100436.59;;;-4.04;100.00
4836;BME280;2432;51.226;6.904;2022-12-13T07:07:24;100429.97;;;-3.99;100.00
4836;BME280;2432;51.226;6.904;2022-12-13T07:09:52;100427.41;;;-3.99;100.00
4836;BME280;2432;51.226;6.904;2022-12-13T07:12:18;100428.09;;;-4.03;100.00
4836;BME280;2432;51.226;6.904;2022-12-13T07:14:47;100432.34;;;-4.03;100.00
4836;BME280;2432;51.226;6.904;2022-12-13T07:17:13;100436.66;;;-4.02;100.00
4836;BME280;2432;51.226;6.904;2022-12-13T07:19:59;100435.91;;;-4.00;100.00
4836;BME280;2432;51.226;6.904;2022-12-13T07:22:27;100444.44;;;-3.99;100.00
4836;BME280;2432;51.226;6.904;2022-12-13T07:24:53;100441.59;;;-4.07;100.00
4836;BME280;2432;51.226;6.904;2022-12-13T07:27:20;100434.69;;;-4.09;100.00
4836;BME280;2432;51.226;6.904;2022-12-13T07:29:46;100429.75;;;-4.05;100.00
4836;BME280;2432;51.226;6.904;2022-12-13T07:32:12;100440.06;;;-4.02;100.00
4836;BME280;2432;51.226;6.904;2022-12-13T07:34:39;100437.56;;;-4.00;100.00
4836;BME280;2432;51.226;6.904;2022-12-13T07:37:08;100438.56;;;-3.96;100.00
4836;BME280;2432;51.226;6.904;2022-12-13T07:39:54;100445.34;;;-3.97;100.00
4836;BME280;2432;51.226;6.904;2022-12-13T07:42:28;100443.63;;;-3.98;100.00
4836;BME280;2432;51.226;6.904;2022-12-13T07:44:55;100447.13;;;-3.94;100.00
4836;BME280;2432;51.226;6.904;2022-12-13T07:47:21;100451.44;;;-3.93;100.00
4836;BME280;2432;51.226;6.904;2022-12-13T07:49:48;100455.63;;;-3.95;100.00
4836;BME280;2432;51.226;6.904;2022-12-13T07:52:15;100453.03;;;-3.97;100.00
4836;BME280;2432;51.226;6.904;2022-12-13T07:54:41;100453.38;;;-4.10;100.00
4836;BME280;2432;51.226;6.904;2022-12-13T07:57:08;100444.34;;;-4.01;100.00
4836;BME280;2432;51.226;6.904;2022-12-13T07:59:34;100451.28;;;-3.98;100.00
4836;BME280;2432;51.226;6.904;2022-12-13T08:02:00;100442.66;;;-4.00;100.00
4836;BME280;2432;51.226;6.904;2022-12-13T08:04:27;100447.13;;;-3.94;100.00
4836;BME280;2432;51.226;6.904;2022-12-13T08:07:08;100451.59;;;-3.89;100.00
4836;BME280;2432;51.226;6.904;2022-12-13T08:09:35;100454.97;;;-3.90;100.00
4836;BME280;2432;51.226;6.904;2022-12-13T08:12:02;100454.84;;;-3.93;100.00
4836;BME280;2432;51.226;6.904;2022-12-13T08:14:30;100448.13;;;-3.91;100.00
4836;BME280;2432;51.226;6.904;2022-12-13T08:16:57;100445.69;;;-3.88;100.00
4836;BME280;2432;51.226;6.904;2022-12-13T08:19:23;100453.56;;;-3.82;100.00
4836;BME280;2432;51.226;6.904;2022-12-13T08:21:50;100450.84;;;-3.86;100.00
4836;BME280;2432;51.226;6.904;2022-12-13T08:24:25;100445.72;;;-3.86;100.00
4836;BME280;2432;51.226;6.904;2022-12-13T08:26:56;100451.34;;;-3.96;100.00
4836;BME280;2432;51.226;6.904;2022-12-13T08:29:26;100463.66;;;-4.09;100.00
4836;BME280;2432;51.226;6.904;2022-12-13T08:32:11;100466.16;;;-4.10;100.00
4836;BME280;2432;51.226;6.904;2022-12-13T08:34:38;100459.81;;;-3.97;100.00
4836;BME280;2432;51.226;6.904;2022-12-13T08:37:06;100463.56;;;-3.88;100.00
4836;BME280;2432;51.226;6.904;2022-12-13T08:39:35;100456.88;;;-3.84;100.00
4836;BME280;2432;51.226;6.904;2022-12-13T08:42:08;100452.78;;;-3.79;100.00
4836;BME280;2432;51.226;6.904;2022-12-13T08:44:47;100457.34;;;-3.71;100.00
4836;BME280;2432;51.226;6.904;2022-12-13T08:47:15;100455.16;;;-3.60;100.00
4836;BME280;2432;51.226;6.904;2022-12-13T08:49:52;100450.19;;;-3.55;100.00
4836;BME280;2432;51.226;6.904;2022-12-13T08:52:20;100448.44;;;-3.56;100.00
4836;BME280;2432;51.226;6.904;2022-12-13T08:54:47;100440.63;;;-3.61;100.00
4836;BME280;2432;51.226;6.904;2022-12-13T08:57:14;100446.56;;;-3.62;100.00
4836;BME280;2432;51.226;6.904;2022-12-13T08:59:40;100454.44;;;-3.56;100.00
4836;BME280;2432;51.226;6.904;2022-12-13T09:02:14;100453.75;;;-3.50;100.00
4836;BME280;2432;51.226;6.904;2022-12-13T09:04:41;100465.06;;;-3.44;100.00
4836;BME280;2432;51.226;6.904;2022-12-13T09:07:08;100461.09;;;-3.35;100.00
4836;BME280;2432;51.226;6.904;2022-12-13T09:09:34;100468.91;;;-3.31;100.00
4836;BME280;2432;51.226;6.904;2022-12-13T09:12:02;100463.94;;;-3.26;100.00
4836;BME280;2432;51.226;6.904;2022-12-13T09:14:36;100467.38;;;-3.26;100.00
4836;BME280;2432;51.226;6.904;2022-12-13T09:17:10;100472.53;;;-3.24;100.00
4836;BME280;2432;51.226;6.904;2022-12-13T09:19:49;100469.44;;;-3.14;100.00
4836;BME280;2432;51.226;6.904;2022-12-13T09:22:23;100471.13;;;-3.15;100.00
4836;BME280;2432;51.226;6.904;2022-12-13T09:25:02;100466.22;;;-3.08;100.00
4836;BME280;2432;51.226;6.904;2022-12-13T09:27:30;100464.53;;;-3.08;100.00
4836;BME280;2432;51.226;6.904;2022-12-13T09:30:06;100462.13;;;-3.03;100.00
4836;BME280;2432;51.226;6.904;2022-12-13T09:32:33;100465.66;;;-3.00;100.00
4836;BME280;2432;51.226;6.904;2022-12-13T09:35:00;100475.84;;;-3.01;100.00
4836;BME280;2432;51.226;6.904;2022-12-13T09:37:28;100465.72;;;-2.97;100.00
4836;BME280;2432;51.226;6.904;2022-12-13T09:39:55;100476.16;;;-2.91;100.00
4836;BME280;2432;51.226;6.904;2022-12-13T09:42:24;100473.06;;;-2.80;100.00
4836;BME280;2432;51.226;6.904;2022-12-13T09:45:05;100470.63;;;-2.77;100.00
4836;BME280;2432;51.226;6.904;2022-12-13T09:47:49;100469.81;;;-2.76;100.00
4836;BME280;2432;51.226;6.904;2022-12-13T09:50:30;100463.16;;;-2.70;100.00
4836;BME280;2432;51.226;6.904;2022-12-13T09:53:04;100466.53;;;-2.71;100.00
4836;BME280;2432;51.226;6.904;2022-12-13T09:55:48;100459.88;;;-2.66;100.00
4836;BME280;2432;51.226;6.904;2022-12-13T09:58:28;100462.63;;;-2.60;100.00
4836;BME280;2432;51.226;6.904;2022-12-13T10:00:57;100459.91;;;-2.64;100.00
4836;BME280;2432;51.226;6.904;2022-12-13T10:03:25;100455.81;;;-2.59;100.00
4836;BME280;2432;51.226;6.904;2022-12-13T10:06:13;100456.72;;;-2.57;100.00
4836;BME280;2432;51.226;6.904;2022-12-13T10:08:53;100457.66;;;-2.53;100.00
4836;BME280;2432;51.226;6.904;2022-12-13T10:11:25;100452.66;;;-2.50;100.00
4836;BME280;2432;51.226;6.904;2022-12-13T10:14:09;100449.41;;;-2.43;100.00
4836;BME280;2432;51.226;6.904;2022-12-13T10:16:46;100442.81;;;-2.35;100.00
4836;BME280;2432;51.226;6.904;2022-12-13T10:19:33;100425.88;;;-2.30;100.00
4836;BME280;2432;51.226;6.904;2022-12-13T10:22:02;100427.78;;;-2.24;100.00
4836;BME280;2432;51.226;6.904;2022-12-13T10:27:26;100422.97;;;-2.12;100.00
4836;BME280;2432;51.226;6.904;2022-12-13T10:30:04;100416.28;;;-2.07;100.00
4836;BME280;2432;51.226;6.904;2022-12-13T10:32:41;100412.06;;;-2.05;100.00
4836;BME280;2432;51.226;6.904;2022-12-13T10:35:20;100412.09;;;-2.04;100.00
4836;BME280;2432;51.226;6.904;2022-12-13T10:37:47;100408.81;;;-2.00;100.00
4836;BME280;2432;51.226;6.904;2022-12-13T10:40:39;100398.69;;;-1.93;100.00
4836;BME280;2432;51.226;6.904;2022-12-13T10:45:32;100400.72;;;-1.82;100.00
4836;BME280;2432;51.226;6.904;2022-12-13T10:47:59;100391.47;;;-1.75;100.00
4836;BME280;2432;51.226;6.904;2022-12-13T10:50:30;100383.88;;;-1.72;100.00
4836;BME280;2432;51.226;6.904;2022-12-13T10:52:58;100382.25;;;-1.67;100.00
4836;BME280;2432;51.226;6.904;2022-12-13T10:55:35;100389.25;;;-1.61;100.00
4836;BME280;2432;51.226;6.904;2022-12-13T10:58:04;100373.94;;;-1.57;100.00
4836;BME280;2432;51.226;6.904;2022-12-13T11:02:59;100374.25;;;-1.46;100.00
4836;BME280;2432;51.226;6.904;2022-12-13T11:05:33;100364.88;;;-1.44;100.00
4836;BME280;2432;51.226;6.904;2022-12-13T11:08:20;100359.78;;;-1.41;100.00
4836;BME280;2432;51.226;6.904;2022-12-13T11:10:57;100358.97;;;-1.40;100.00
4836;BME280;2432;51.226;6.904;2022-12-13T11:13:32;100358.19;;;-1.37;100.00
4836;BME280;2432;51.226;6.904;2022-12-13T11:16:04;100363.38;;;-1.34;100.00
4836;BME280;2432;51.226;6.904;2022-12-13T11:18:38;100349.81;;;-1.30;100.00
4836;BME280;2432;51.226;6.904;2022-12-13T11:21:05;100358.47;;;-1.25;100.00
4836;BME280;2432;51.226;6.904;2022-12-13T11:26:05;100354.25;;;-1.22;100.00
4836;BME280;2432;51.226;6.904;2022-12-13T11:31:34;100333.03;;;-1.13;100.00
4836;BME280;2432;51.226;6.904;2022-12-13T11:37:00;100329.09;;;-0.99;100.00
4836;BME280;2432;51.226;6.904;2022-12-13T11:39:35;100324.13;;;-0.90;100.00
4836;BME280;2432;51.226;6.904;2022-12-13T11:42:20;100318.25;;;-0.86;100.00
4836;BME280;2432;51.226;6.904;2022-12-13T11:45:30;100312.38;;;-0.78;100.00
4836;BME280;2432;51.226;6.904;2022-12-13T11:48:18;100318.41;;;-0.78;100.00
4836;BME280;2432;51.226;6.904;2022-12-13T11:50:48;100308.06;;;-0.79;100.00
4836;BME280;2432;51.226;6.904;2022-12-13T11:56:10;100313.31;;;-0.75;100.00
4836;BME280;2432;51.226;6.904;2022-12-13T12:01:36;100322.94;;;-0.65;100.00
4836;BME280;2432;51.226;6.904;2022-12-13T12:04:09;100320.38;;;-0.65;100.00
4836;BME280;2432;51.226;6.904;2022-12-13T12:06:44;100314.38;;;-0.64;100.00
4836;BME280;2432;51.226;6.904;2022-12-13T12:09:18;100311.94;;;-0.59;100.00
4836;BME280;2432;51.226;6.904;2022-12-13T12:12:09;100321.50;;;-0.52;100.00
4836;BME280;2432;51.226;6.904;2022-12-13T12:17:13;100314.81;;;-0.42;100.00
4836;BME280;2432;51.226;6.904;2022-12-13T12:19:44;100326.84;;;-0.41;100.00
4836;BME280;2432;51.226;6.904;2022-12-13T12:22:19;100319.16;;;-0.38;100.00
4836;BME280;2432;51.226;6.904;2022-12-13T12:30:06;100325.50;;;-0.21;100.00
4836;BME280;2432;51.226;6.904;2022-12-13T12:47:56;100298.38;;;-0.04;100.00
4836;BME280;2432;51.226;6.904;2022-12-13T12:51:01;100296.84;;;0.08;100.00
4836;BME280;2432;51.226;6.904;2022-12-13T13:04:12;100284.94;;;0.14;100.00
4836;BME280;2432;51.226;6.904;2022-12-13T13:07:22;100286.59;;;0.09;100.00
4836;BME280;2432;51.226;6.904;2022-12-13T13:09:51;100289.09;;;0.08;100.00
4836;BME280;2432;51.226;6.904;2022-12-13T13:12:22;100285.75;;;0.12;100.00
4836;BME280;2432;51.226;6.904;2022-12-13T13:14:56;100278.94;;;0.14;100.00
4836;BME280;2432;51.226;6.904;2022-12-13T13:19:55;100262.03;;;0.30;100.00
4836;BME280;2432;51.226;6.904;2022-12-13T13:22:40;100274.34;;;0.52;100.00
4836;BME280;2432;51.226;6.904;2022-12-13T13:25:33;100271.22;;;0.73;100.00
4836;BME280;2432;51.226;6.904;2022-12-13T13:28:20;100278.25;;;0.84;99.56
4836;BME280;2432;51.226;6.904;2022-12-13T13:31:07;100276.50;;;0.82;100.00
4836;BME280;2432;51.226;6.904;2022-12-13T13:36:07;100266.00;;;0.68;100.00
4836;BME280;2432;51.226;6.904;2022-12-13T13:38:54;100269.38;;;0.63;100.00
4836;BME280;2432;51.226;6.904;2022-12-13T13:41:52;100264.16;;;0.58;100.00
4836;BME280;2432;51.226;6.904;2022-12-13T13:53:11;100262.00;;;0.26;100.00
4836;BME280;2432;51.226;6.904;2022-12-13T13:55:59;100264.50;;;0.25;100.00
4836;BME280;2432;51.226;6.904;2022-12-13T14:09:49;100260.91;;;0.14;100.00
4836;BME280;2432;51.226;6.904;2022-12-13T14:23:00;100253.94;;;0.08;100.00
4836;BME280;2432;51.226;6.904;2022-12-13T14:28:16;100248.75;;;0.04;100.00
4836;BME280;2432;51.226;6.904;2022-12-13T14:30:45;100248.72;;;0.02;100.00
4836;BME280;2432;51.226;6.904;2022-12-13T14:33:23;100246.91;;;-0.04;100.00
4836;BME280;2432;51.226;6.904;2022-12-13T14:35:58;100242.59;;;-0.06;100.00
4836;BME280;2432;51.226;6.904;2022-12-13T14:38:27;100252.81;;;-0.09;100.00
4836;BME280;2432;51.226;6.904;2022-12-13T14:40:59;100240.75;;;-0.13;100.00
4836;BME280;2432;51.226;6.904;2022-12-13T14:43:32;100242.44;;;-0.15;100.00
4836;BME280;2432;51.226;6.904;2022-12-13T14:46:04;100239.78;;;-0.20;100.00
4836;BME280;2432;51.226;6.904;2022-12-13T14:48:51;100250.03;;;-0.23;100.00
4836;BME280;2432;51.226;6.904;2022-12-13T14:51:29;100253.41;;;-0.25;100.00
4836;BME280;2432;51.226;6.904;2022-12-13T14:53:57;100247.31;;;-0.31;100.00
4836;BME280;2432;51.226;6.904;2022-12-13T14:56:23;100244.72;;;-0.32;100.00
4836;BME280;2432;51.226;6.904;2022-12-13T14:58:56;100244.72;;;-0.34;100.00
4836;BME280;2432;51.226;6.904;2022-12-13T15:01:34;100231.84;;;-0.34;100.00
4836;BME280;2432;51.226;6.904;2022-12-13T15:06:52;100224.09;;;-0.35;100.00
4836;BME280;2432;51.226;6.904;2022-12-13T15:09:20;100223.22;;;-0.36;100.00
4836;BME280;2432;51.226;6.904;2022-12-13T15:11:47;100216.34;;;-0.37;100.00
4836;BME280;2432;51.226;6.904;2022-12-13T15:14:17;100214.63;;;-0.38;100.00
4836;BME280;2432;51.226;6.904;2022-12-13T15:16:54;100206.88;;;-0.41;100.00
4836;BME280;2432;51.226;6.904;2022-12-13T15:19:26;100205.13;;;-0.43;100.00
4836;BME280;2432;51.226;6.904;2022-12-13T15:22:03;100197.34;;;-0.46;100.00
4836;BME280;2432;51.226;6.904;2022-12-13T15:24:37;100197.28;;;-0.49;100.00
4836;BME280;2432;51.226;6.904;2022-12-13T15:27:06;100193.78;;;-0.53;100.00
4836;BME280;2432;51.226;6.904;2022-12-13T15:29:34;100192.06;;;-0.54;100.00
4836;BME280;2432;51.226;6.904;2022-12-13T15:32:02;100198.88;;;-0.58;100.00